Bonaparte, Iowa
Current Conditions -  °F | °C
As of 12:35 PM on Sunday 21 Dec 2014 (Local Time) from KMPZ Reporting Station
Overcast Overcast  
Wind Chill: 32°   Ceiling: 2500
Heat Index: 39°   Visibility: 10mi
Dew Point: 37°   Wind: 10mph
Humidity: 92%   Direction: 150°SSE
Pressure: 29.99"   Gusts: NA
Location:  40.7°N, 91.8°W
Report Text: KMPZ 211835Z AUTO 15009KT 10SM OVC025 04/03 A2999 RMK AO2 T00400028
Loading
Personal Weather Stations






























Interactive Weather Map New forecast layout! Learn more

10-Day Weather Forecast

Advertisements
Track Severe Weather on mobile